Time;durP1;ratioP1;P1;durP2;ratioP2;P2;SDS_P1;SDS_P2;PMS_P1;PMS_P2;Temp;Humidity;BMP_temperature;BMP_pressure;BME280_temperature;BME280_humidity;BME280_pressure;Samples;Min_cycle;Max_cycle;Signal;HPM_P1;HPM_P2
2023/07/12 04:01:12;;;;;;;1.03;1.03;;;18.50;99.90;;;;;;5657690;23;20937;-67
2023/07/12 04:03:39;;;;;;;3.13;1.40;;;18.50;99.90;;;;;;4991329;28;20510;-67
2023/07/12 04:06:07;;;;;;;1.47;1.47;;;18.60;99.90;;;;;;4992777;28;20462;-67
2023/07/12 04:08:34;;;;;;;1.10;1.10;;;18.70;99.90;;;;;;4992388;28;20467;-67
2023/07/12 04:11:02;;;;;;;1.50;1.50;;;18.70;99.90;;;;;;4992426;28;20947;-67
2023/07/12 04:13:29;;;;;;;1.90;1.80;;;18.70;99.90;;;;;;4992437;28;20466;-67
2023/07/12 04:15:57;;;;;;;1.27;1.10;;;18.80;99.90;;;;;;4991559;28;20871;-67
2023/07/12 04:18:26;;;;;;;1.33;1.33;;;18.80;99.90;;;;;;4992170;28;20463;-67
2023/07/12 04:20:53;;;;;;;2.60;2.40;;;18.90;99.90;;;;;;4993091;28;20998;-68
2023/07/12 04:23:20;;;;;;;1.60;1.60;;;19.00;99.90;;;;;;4992325;28;20463;-68
2023/07/12 04:25:47;;;;;;;1.50;1.40;;;19.00;99.90;;;;;;4991313;28;20471;-68
2023/07/12 04:28:14;;;;;;;1.17;1.17;;;19.10;99.90;;;;;;4992134;28;21165;-68
2023/07/12 04:30:41;;;;;;;1.93;1.83;;;19.10;99.90;;;;;;4991520;28;20994;-68
2023/07/12 04:33:07;;;;;;;1.47;1.47;;;19.20;99.90;;;;;;4991809;28;20463;-68
2023/07/12 04:35:39;;;;;;;1.20;1.20;;;19.20;99.90;;;;;;4992024;28;21018;-69
2023/07/12 04:38:06;;;;;;;1.53;1.53;;;19.40;99.90;;;;;;4992159;28;20463;-68
2023/07/12 04:40:33;;;;;;;2.00;1.90;;;19.50;99.90;;;;;;4992048;28;20487;-68
2023/07/12 04:43:00;;;;;;;1.00;1.00;;;19.60;99.90;;;;;;4988742;28;20953;-67
2023/07/12 04:45:27;;;;;;;1.23;1.20;;;19.90;99.90;;;;;;5010939;28;20454;-66
2023/07/12 04:47:53;;;;;;;1.10;1.10;;;20.00;99.90;;;;;;5011130;28;20462;-68
2023/07/12 04:50:20;;;;;;;1.50;1.50;;;20.10;99.90;;;;;;5011405;28;20461;-68
2023/07/12 04:52:49;;;;;;;1.30;1.30;;;20.40;99.90;;;;;;5011624;28;20572;-68
2023/07/12 04:55:27;;;;;;;10.27;2.37;;;20.90;99.90;;;;;;5010963;28;20851;-68
2023/07/12 04:57:54;;;;;;;2.10;1.27;;;21.60;99.90;;;;;;5011565;28;20475;-67
2023/07/12 05:00:23;;;;;;;1.37;1.37;;;22.10;99.90;;;;;;5010840;28;20553;-68
2023/07/12 05:02:50;;;;;;;2.77;1.40;;;22.40;99.90;;;;;;5010990;28;20469;-67
2023/07/12 05:05:17;;;;;;;1.33;1.13;;;22.90;99.90;;;;;;5011048;28;20465;-67
2023/07/12 05:07:44;;;;;;;0.83;0.83;;;23.50;99.90;;;;;;5011031;28;20472;-67
2023/07/12 05:10:12;;;;;;;0.93;0.93;;;23.40;99.90;;;;;;5010836;28;20473;-68
2023/07/12 05:12:40;;;;;;;0.83;0.83;;;23.10;99.90;;;;;;5011020;28;20474;-67
2023/07/12 05:15:08;;;;;;;0.83;0.83;;;22.90;99.90;;;;;;5010235;28;20494;-67
2023/07/12 05:17:35;;;;;;;0.93;0.93;;;22.70;99.90;;;;;;5010716;28;20660;-68
2023/07/12 05:20:04;;;;;;;0.83;0.83;;;22.90;99.90;;;;;;5010805;28;20465;-67
2023/07/12 05:22:30;;;;;;;0.70;0.70;;;23.40;99.90;;;;;;5010657;28;20486;-67
2023/07/12 05:24:58;;;;;;;0.47;0.47;;;23.90;99.90;;;;;;5011425;28;20478;-67
2023/07/12 05:27:27;;;;;;;0.80;0.80;;;24.00;99.90;;;;;;5011200;28;20464;-67
2023/07/12 05:29:53;;;;;;;0.77;0.77;;;23.70;99.90;;;;;;5011000;28;21023;-68
2023/07/12 05:32:20;;;;;;;0.90;0.90;;;23.60;99.90;;;;;;5011539;28;20854;-67
2023/07/12 05:34:48;;;;;;;0.60;0.60;;;23.30;99.90;;;;;;5010788;28;20493;-68
2023/07/12 05:37:15;;;;;;;1.13;0.70;;;22.90;99.90;;;;;;5010759;28;20477;-67
2023/07/12 05:39:42;;;;;;;0.80;0.80;;;22.50;99.90;;;;;;5010997;28;20558;-68
2023/07/12 05:42:10;;;;;;;1.07;0.80;;;22.20;99.90;;;;;;5010763;28;20505;-68
2023/07/12 05:44:38;;;;;;;0.80;0.80;;;22.00;99.90;;;;;;5001860;28;20807;-68
2023/07/12 05:47:05;;;;;;;1.00;1.00;;;21.90;99.90;;;;;;5010644;28;20460;-68
2023/07/12 05:49:32;;;;;;;0.73;0.73;;;21.80;99.90;;;;;;5010042;28;20511;-68
2023/07/12 05:52:00;;;;;;;0.93;0.83;;;21.60;99.90;;;;;;5010570;28;21007;-68
2023/07/12 05:54:27;;;;;;;0.97;0.97;;;21.50;99.90;;;;;;5010479;28;20467;-68
2023/07/12 05:56:53;;;;;;;0.70;0.70;;;21.30;99.90;;;;;;5010482;28;20949;-68
2023/07/12 05:59:22;;;;;;;1.30;1.30;;;21.10;99.90;;;;;;5009986;28;20473;-67
2023/07/12 06:01:50;;;;;;;0.93;0.93;;;21.00;99.90;;;;;;5010524;28;20499;-67
2023/07/12 06:04:17;;;;;;;1.30;1.20;;;20.80;99.90;;;;;;5009488;28;20473;-68
2023/07/12 06:06:44;;;;;;;1.53;1.27;;;20.80;99.90;;;;;;5010722;28;20948;-69
2023/07/12 06:09:11;;;;;;;1.10;1.10;;;20.70;99.90;;;;;;5010907;28;20473;-68
2023/07/12 06:11:37;;;;;;;1.00;1.00;;;20.70;99.90;;;;;;5010611;28;20977;-68
2023/07/12 06:14:04;;;;;;;1.50;1.50;;;20.80;99.90;;;;;;5010274;28;20462;-68
2023/07/12 06:16:31;;;;;;;0.97;0.97;;;21.10;99.90;;;;;;5009859;28;20496;-67
2023/07/12 06:18:59;;;;;;;1.13;1.13;;;21.40;99.90;;;;;;5010220;28;20465;-67
2023/07/12 06:21:26;;;;;;;1.27;1.27;;;21.60;99.90;;;;;;5010912;28;20489;-68
2023/07/12 06:23:57;;;;;;;1.50;1.40;;;21.50;99.90;;;;;;5010705;28;20469;-68
2023/07/12 06:26:24;;;;;;;0.77;0.77;;;21.30;99.90;;;;;;5010492;28;20464;-68
2023/07/12 06:28:51;;;;;;;0.73;0.73;;;21.20;99.90;;;;;;5010343;28;20474;-68
2023/07/12 06:31:18;;;;;;;0.90;0.90;;;21.20;99.90;;;;;;5009621;28;20488;-67
2023/07/12 06:33:44;;;;;;;1.07;1.07;;;21.10;99.90;;;;;;5010045;28;20491;-68
2023/07/12 06:36:12;;;;;;;1.63;1.53;;;21.00;99.90;;;;;;5010177;28;20601;-68
2023/07/12 06:38:39;;;;;;;1.70;1.13;;;21.00;99.90;;;;;;5010162;28;20831;-68
2023/07/12 06:41:06;;;;;;;1.63;1.03;;;21.00;99.90;;;;;;5009959;28;20505;-68
2023/07/12 06:43:32;;;;;;;0.90;0.90;;;21.20;99.90;;;;;;5001275;28;20990;-68
2023/07/12 06:45:59;;;;;;;1.00;1.00;;;21.30;99.90;;;;;;4989886;28;20736;-68
2023/07/12 06:48:26;;;;;;;1.00;1.00;;;21.90;99.90;;;;;;4989723;28;20477;-68
2023/07/12 06:50:54;;;;;;;1.10;1.10;;;22.20;99.90;;;;;;4993548;28;20486;-68
2023/07/12 06:53:22;;;;;;;1.10;1.10;;;22.40;99.90;;;;;;4993600;28;20459;-68
2023/07/12 06:55:49;;;;;;;1.03;0.60;;;22.40;99.90;;;;;;4993215;28;20824;-68
2023/07/12 06:58:16;;;;;;;2.30;0.93;;;22.20;99.90;;;;;;4993364;28;20473;-68
2023/07/12 07:00:44;;;;;;;2.10;0.97;;;22.10;99.90;;;;;;4993230;28;20494;-68
2023/07/12 07:03:13;;;;;;;0.70;0.70;;;22.00;99.90;;;;;;4992956;28;20981;-68
2023/07/12 07:05:42;;;;;;;0.90;0.90;;;22.00;99.90;;;;;;4993150;28;20466;-68
2023/07/12 07:08:22;;;;;;;1.00;1.00;;;22.00;99.90;;;;;;4993777;28;20463;-68
2023/07/12 07:10:52;;;;;;;0.90;0.90;;;22.10;99.90;;;;;;4992619;28;20839;-68
2023/07/12 07:13:21;;;;;;;1.07;0.90;;;23.10;99.90;;;;;;4993140;28;20536;-68
2023/07/12 07:15:48;;;;;;;0.70;0.70;;;24.10;99.90;;;;;;4992624;28;20544;-68
2023/07/12 07:18:16;;;;;;;0.60;0.60;;;24.10;99.90;;;;;;4992831;28;20471;-68
2023/07/12 07:20:43;;;;;;;2.10;0.90;;;23.90;99.90;;;;;;4993006;28;21004;-68
2023/07/12 07:23:11;;;;;;;0.70;0.70;;;23.50;99.90;;;;;;4993039;28;20463;-68
2023/07/12 07:25:38;;;;;;;0.50;0.50;;;23.10;99.90;;;;;;4992620;28;20462;-67
2023/07/12 07:28:07;;;;;;;0.63;0.63;;;22.90;99.90;;;;;;4993063;28;20480;-68
2023/07/12 07:30:33;;;;;;;0.47;0.47;;;22.80;99.90;;;;;;4992770;28;20495;-68
2023/07/12 07:33:00;;;;;;;0.70;0.60;;;23.00;99.90;;;;;;4992644;28;20462;-67
2023/07/12 07:35:28;;;;;;;0.50;0.50;;;23.80;99.90;;;;;;4992924;28;20484;-68
2023/07/12 07:37:54;;;;;;;1.93;0.40;;;24.50;99.90;;;;;;4992627;28;20470;-68
2023/07/12 07:40:21;;;;;;;1.10;1.10;;;25.30;99.90;;;;;;4992454;28;20462;-68
2023/07/12 07:42:48;;;;;;;0.43;0.43;;;25.90;99.90;;;;;;4990359;28;20472;-68
2023/07/12 07:45:17;;;;;;;0.60;0.60;;;26.30;99.90;;;;;;5011836;28;20458;-70
2023/07/12 07:47:44;;;;;;;0.47;0.47;;;26.40;99.90;;;;;;5011679;28;20573;-68
2023/07/12 07:50:11;;;;;;;0.30;0.30;;;26.70;99.90;;;;;;5012171;28;20552;-68
2023/07/12 07:52:40;;;;;;;0.70;0.70;;;26.60;99.90;;;;;;5012651;28;20489;-68
2023/07/12 07:55:09;;;;;;;0.50;0.50;;;26.80;99.90;;;;;;5011756;28;20493;-68
2023/07/12 07:57:35;;;;;;;0.60;0.60;;;27.10;99.90;;;;;;5011839;28;20933;-67
2023/07/12 08:00:07;;;;;;;0.70;0.70;;;27.10;99.90;;;;;;5010642;28;20946;-68
2023/07/12 08:02:35;;;;;;;0.50;0.50;;;26.90;99.90;;;;;;5010909;28;20993;-67
2023/07/12 08:05:01;;;;;;;0.40;0.40;;;26.90;99.90;;;;;;5011590;28;20466;-68
2023/07/12 08:07:29;;;;;;;0.70;0.70;;;26.70;99.90;;;;;;5011979;28;20465;-68
2023/07/12 08:09:55;;;;;;;0.70;0.70;;;25.70;99.90;;;;;;5011849;28;20462;-67
2023/07/12 08:12:22;;;;;;;0.40;0.40;;;25.00;99.90;;;;;;5011629;28;20490;-68
2023/07/12 08:14:49;;;;;;;0.50;0.50;;;24.40;99.90;;;;;;5011298;28;20468;-68
2023/07/12 08:17:15;;;;;;;0.60;0.60;;;24.40;99.90;;;;;;5011821;28;20933;-67
2023/07/12 08:19:45;;;;;;;0.60;0.57;;;24.40;99.90;;;;;;5012199;28;20469;-68
2023/07/12 08:22:11;;;;;;;0.70;0.70;;;24.70;99.90;;;;;;5013998;28;20762;-68
2023/07/12 08:24:38;;;;;;;0.87;0.87;;;25.10;99.90;;;;;;5013447;28;20462;-67
2023/07/12 08:27:05;;;;;;;0.40;0.40;;;25.60;99.90;;;;;;5011826;28;20469;-68
2023/07/12 08:29:32;;;;;;;0.60;0.60;;;26.10;99.90;;;;;;5011004;28;20466;-68
2023/07/12 08:31:59;;;;;;;0.70;0.70;;;26.60;99.90;;;;;;5011538;28;20572;-68
2023/07/12 08:34:25;;;;;;;0.67;0.67;;;26.80;99.90;;;;;;5010420;28;20465;-68
2023/07/12 08:36:53;;;;;;;0.90;0.90;;;26.80;99.90;;;;;;5011043;28;21021;-68
2023/07/12 08:39:20;;;;;;;0.40;0.40;;;26.30;99.90;;;;;;5011168;28;20466;-67
2023/07/12 08:41:47;;;;;;;0.37;0.37;;;25.60;99.90;;;;;;5011012;28;20482;-68
2023/07/12 08:44:15;;;;;;;0.40;0.40;;;25.40;99.90;;;;;;4998770;28;20473;-68
2023/07/12 08:46:49;;;;;;;0.33;0.33;;;25.10;99.90;;;;;;5010765;28;21007;-68
2023/07/12 08:49:17;;;;;;;0.70;0.70;;;25.10;99.90;;;;;;5010907;28;20473;-68
2023/07/12 08:51:45;;;;;;;0.67;0.67;;;25.40;99.90;;;;;;5011694;28;20504;-68
2023/07/12 08:54:25;;;;;;;0.70;0.70;;;25.50;99.90;;;;;;5011139;28;20461;-68
2023/07/12 08:57:08;;;;;;;1.13;0.70;;;25.60;99.90;;;;;;5011335;28;20485;-68
2023/07/12 08:59:35;;;;;;;0.70;0.70;;;25.70;99.90;;;;;;5010832;28;20478;-68
2023/07/12 09:02:06;;;;;;;0.77;0.77;;;25.60;99.90;;;;;;5010627;28;20501;-68
2023/07/12 09:04:34;;;;;;;0.60;0.60;;;25.40;99.90;;;;;;5009889;28;20469;-68
2023/07/12 09:07:05;;;;;;;0.50;0.50;;;25.00;99.90;;;;;;5010786;28;20459;-69
2023/07/12 09:09:37;;;;;;;0.70;0.70;;;25.00;99.90;;;;;;5010351;28;20971;-68
2023/07/12 09:12:05;;;;;;;0.60;0.60;;;24.90;99.90;;;;;;5010375;28;20489;-68
2023/07/12 09:14:37;;;;;;;0.83;0.83;;;25.20;99.90;;;;;;5009770;28;20607;-68
2023/07/12 09:17:07;;;;;;;0.57;0.57;;;25.50;99.90;;;;;;5010604;28;20491;-67
2023/07/12 09:19:38;;;;;;;2.63;1.17;;;25.20;99.90;;;;;;5009676;28;20984;-68
2023/07/12 09:22:14;;;;;;;0.67;0.67;;;25.10;99.90;;;;;;5010217;28;20520;-67
2023/07/12 09:24:45;;;;;;;0.80;0.80;;;25.20;99.90;;;;;;5010222;28;20830;-68
2023/07/12 09:27:16;;;;;;;0.63;0.63;;;25.00;99.90;;;;;;5010694;28;20463;-68
2023/07/12 09:29:43;;;;;;;1.07;0.60;;;25.00;99.90;;;;;;5009810;28;20556;-67
2023/07/12 09:32:31;;;;;;;1.60;0.50;;;24.70;99.90;;;;;;5010342;28;20556;-67
2023/07/12 09:34:58;;;;;;;0.70;0.70;;;24.50;99.90;;;;;;5010118;28;20469;-67
2023/07/12 09:37:25;;;;;;;0.70;0.70;;;24.60;99.90;;;;;;5010371;28;20500;-67
2023/07/12 09:39:56;;;;;;;1.43;0.60;;;24.40;99.90;;;;;;5010200;28;20489;-67
2023/07/12 09:42:23;;;;;;;0.70;0.70;;;24.20;99.90;;;;;;5006538;28;20484;-67
2023/07/12 09:44:50;;;;;;;1.57;0.83;;;24.10;99.90;;;;;;5007335;28;20569;-67
2023/07/12 09:47:34;;;;;;;0.80;0.80;;;23.90;99.90;;;;;;5009999;28;20470;-67
2023/07/12 09:50:07;;;;;;;0.43;0.43;;;23.60;99.90;;;;;;5010534;28;20969;-68
2023/07/12 09:52:44;;;;;;;0.77;0.77;;;23.70;99.90;;;;;;5010113;28;20491;-67
2023/07/12 09:55:19;;;;;;;0.80;0.80;;;24.00;99.90;;;;;;5009847;28;20467;-67
2023/07/12 09:57:54;;;;;;;0.60;0.60;;;24.10;99.90;;;;;;5010127;28;20494;-67
2023/07/12 10:00:28;;;;;;;1.27;1.27;;;24.10;99.90;;;;;;5009933;28;20462;-67
2023/07/12 10:03:13;;;;;;;0.80;0.80;;;24.10;99.90;;;;;;5009564;28;20466;-67
2023/07/12 10:05:45;;;;;;;0.60;0.60;;;24.10;99.90;;;;;;5010095;28;20879;-67
2023/07/12 10:08:14;;;;;;;0.50;0.50;;;24.20;99.90;;;;;;5010085;28;20467;-68
2023/07/12 10:10:49;;;;;;;0.70;0.70;;;24.20;99.90;;;;;;5010665;28;20483;-67
2023/07/12 10:13:34;;;;;;;0.70;0.70;;;24.20;99.90;;;;;;5010568;28;20500;-67
2023/07/12 10:16:03;;;;;;;0.83;0.83;;;24.20;99.90;;;;;;5009488;28;20959;-67
2023/07/12 10:18:33;;;;;;;0.87;0.87;;;24.30;99.90;;;;;;5010186;28;20470;-67
2023/07/12 10:21:01;;;;;;;0.93;0.60;;;24.30;99.90;;;;;;5012452;28;20491;-67
2023/07/12 10:23:31;;;;;;;0.70;0.70;;;24.30;99.90;;;;;;5023973;28;20463;-68
2023/07/12 10:26:04;;;;;;;1.90;0.90;;;24.10;99.90;;;;;;5030886;28;20471;-68
2023/07/12 10:28:41;;;;;;;1.30;1.20;;;24.30;99.90;;;;;;5028153;28;20521;-67
2023/07/12 10:31:16;;;;;;;0.73;0.73;;;24.40;99.90;;;;;;5013402;28;20487;-67
2023/07/12 10:33:48;;;;;;;0.67;0.67;;;24.40;99.90;;;;;;5013155;28;20463;-68
2023/07/12 10:36:19;;;;;;;0.87;0.87;;;24.20;99.90;;;;;;5013477;28;20483;-69
2023/07/12 10:38:47;;;;;;;1.80;1.30;;;24.00;99.90;;;;;;5013715;28;20468;-67
2023/07/12 10:41:21;;;;;;;0.80;0.80;;;23.70;99.90;;;;;;5013711;28;20614;-67
2023/07/12 10:43:50;;;;;;;0.90;0.90;;;23.80;99.90;;;;;;5010682;28;20855;-67
2023/07/12 10:46:24;;;;;;;0.73;0.73;;;23.80;99.90;;;;;;5012906;28;20465;-67
2023/07/12 10:48:52;;;;;;;0.77;0.77;;;23.80;99.90;;;;;;5013329;28;20466;-67
2023/07/12 10:51:35;;;;;;;1.30;1.30;;;23.90;99.90;;;;;;5013310;28;20551;-68
2023/07/12 10:54:03;;;;;;;0.93;0.93;;;24.00;99.90;;;;;;5012943;28;20483;-68
2023/07/12 10:56:37;;;;;;;0.67;0.67;;;24.10;99.90;;;;;;5012841;28;20482;-68
2023/07/12 10:59:05;;;;;;;0.83;0.83;;;24.10;99.90;;;;;;5013316;28;20462;-68
2023/07/12 11:01:56;;;;;;;0.93;0.83;;;24.10;99.90;;;;;;5012492;28;20490;-67
2023/07/12 11:04:34;;;;;;;0.87;0.63;;;24.10;99.90;;;;;;4997240;28;20469;-68
2023/07/12 11:07:03;;;;;;;2.30;0.73;;;24.00;99.90;;;;;;5013139;28;20937;-66
2023/07/12 11:10:00;;;;;;;1.47;0.50;;;23.90;99.90;;;;;;5012736;28;20468;-66
2023/07/12 11:12:38;;;;;;;0.83;0.70;;;24.00;99.90;;;;;;5012627;28;20489;-70
2023/07/12 11:15:18;;;;;;;1.00;1.00;;;24.10;99.90;;;;;;5012306;28;20951;-67
2023/07/12 11:17:51;;;;;;;1.00;1.00;;;24.00;99.90;;;;;;5012269;28;20796;-67
2023/07/12 11:20:23;;;;;;;0.83;0.83;;;24.00;99.90;;;;;;5012569;28;20496;-67
2023/07/12 11:22:59;;;;;;;2.27;0.97;;;24.10;99.90;;;;;;5012319;28;20857;-67
2023/07/12 11:25:31;;;;;;;1.00;1.00;;;24.00;99.90;;;;;;5012614;28;20466;-68
2023/07/12 11:28:01;;;;;;;1.60;0.60;;;24.10;99.90;;;;;;5012752;28;20488;-65
2023/07/12 11:30:41;;;;;;;0.80;0.80;;;24.30;99.90;;;;;;5012201;28;20489;-68
2023/07/12 11:33:26;;;;;;;3.90;1.23;;;24.50;99.90;;;;;;5012230;28;20549;-66
2023/07/12 11:35:57;;;;;;;2.50;0.90;;;24.60;99.90;;;;;;5011701;28;20974;-68
2023/07/12 11:38:27;;;;;;;1.43;1.00;;;24.60;99.90;;;;;;5012297;28;20491;-67
2023/07/12 11:40:57;;;;;;;0.70;0.70;;;24.70;99.90;;;;;;5012334;28;20491;-66
2023/07/12 11:43:34;;;;;;;0.87;0.87;;;24.80;99.90;;;;;;5009638;28;20471;-66
2023/07/12 11:46:03;;;;;;;1.03;0.93;;;24.90;99.90;;;;;;4984432;28;20611;-67
2023/07/12 11:48:33;;;;;;;0.73;0.73;;;24.80;99.90;;;;;;4992310;28;20491;-66
2023/07/12 11:51:04;;;;;;;0.70;0.70;;;24.90;99.90;;;;;;4992439;28;20949;-67
2023/07/12 11:53:30;;;;;;;1.33;1.23;;;24.90;99.90;;;;;;4992543;28;20838;-67
2023/07/12 11:55:57;;;;;;;0.80;0.80;;;24.90;99.90;;;;;;4991955;28;20471;-68
2023/07/12 11:58:27;;;;;;;0.63;0.63;;;25.00;99.90;;;;;;4992093;28;20483;-67
2023/07/12 12:00:58;;;;;;;0.80;0.77;;;24.80;99.90;;;;;;4991541;28;20508;-68
2023/07/12 12:03:25;;;;;;;0.93;0.70;;;25.00;99.90;;;;;;4991835;28;20515;-67
2023/07/12 12:05:53;;;;;;;0.93;0.93;;;25.10;99.90;;;;;;4991909;28;20473;-66
2023/07/12 12:08:23;;;;;;;1.00;1.00;;;25.10;99.90;;;;;;4992132;28;20463;-67
2023/07/12 12:10:50;;;;;;;1.43;0.87;;;25.40;99.90;;;;;;4991879;28;20489;-67
2023/07/12 12:13:27;;;;;;;0.70;0.70;;;25.60;99.90;;;;;;4992072;28;20784;-67
2023/07/12 12:16:04;;;;;;;1.23;1.10;;;25.60;99.90;;;;;;4991536;28;20482;-67
2023/07/12 12:18:31;;;;;;;0.70;0.70;;;25.50;99.90;;;;;;4991626;28;20493;-67
2023/07/12 12:21:02;;;;;;;3.00;1.17;;;25.60;99.90;;;;;;4991670;28;20528;-67
2023/07/12 12:23:37;;;;;;;1.10;0.90;;;25.40;99.90;;;;;;4991627;28;20469;-67
2023/07/12 12:26:13;;;;;;;1.27;1.27;;;25.20;99.90;;;;;;4991737;28;20834;-68
2023/07/12 12:28:42;;;;;;;3.83;1.20;;;25.10;99.90;;;;;;4992026;28;20575;-67
2023/07/12 12:31:19;;;;;;;0.93;0.93;;;24.90;99.90;;;;;;4991590;28;20486;-66
2023/07/12 12:33:48;;;;;;;0.77;0.77;;;25.10;99.90;;;;;;4991666;28;20468;-67
2023/07/12 12:36:22;;;;;;;0.50;0.50;;;25.20;99.90;;;;;;4991808;28;20492;-67
2023/07/12 12:38:58;;;;;;;0.60;0.60;;;25.30;99.90;;;;;;4991713;28;20532;-67
2023/07/12 12:41:25;;;;;;;1.00;1.00;;;25.60;99.90;;;;;;4991767;28;20540;-67
2023/07/12 12:43:56;;;;;;;0.90;0.90;;;25.80;99.90;;;;;;5003824;28;20477;-68
2023/07/12 12:46:24;;;;;;;1.40;0.73;;;25.90;99.90;;;;;;4994716;28;20793;-66
2023/07/12 12:48:51;;;;;;;0.60;0.60;;;26.00;99.90;;;;;;4992382;28;20459;-67
2023/07/12 12:51:19;;;;;;;0.67;0.67;;;26.00;99.90;;;;;;4993335;28;20556;-66
2023/07/12 12:53:45;;;;;;;1.40;0.90;;;25.90;99.90;;;;;;4994090;28;20475;-67
2023/07/12 12:56:14;;;;;;;1.63;0.70;;;25.80;99.90;;;;;;4991945;28;20494;-67
2023/07/12 12:58:42;;;;;;;0.80;0.80;;;25.60;99.90;;;;;;4991839;28;20590;-67
2023/07/12 13:01:11;;;;;;;1.37;0.90;;;25.80;99.90;;;;;;4991308;28;20499;-66
2023/07/12 13:03:39;;;;;;;0.70;0.70;;;26.00;99.90;;;;;;4991416;28;20493;-67
2023/07/12 13:06:06;;;;;;;0.90;0.90;;;25.90;99.90;;;;;;4991201;28;20466;-66
2023/07/12 13:08:32;;;;;;;1.20;0.83;;;25.80;99.90;;;;;;4991680;28;20497;-66
2023/07/12 13:10:59;;;;;;;0.97;0.97;;;25.60;99.90;;;;;;4991419;28;20496;-66
2023/07/12 13:13:26;;;;;;;0.80;0.80;;;25.60;99.90;;;;;;4991285;28;20506;-67
2023/07/12 13:15:53;;;;;;;2.87;1.50;;;25.80;99.90;;;;;;4990821;28;20462;-67
2023/07/12 13:18:24;;;;;;;0.97;0.97;;;25.90;99.90;;;;;;4991105;28;20497;-67
2023/07/12 13:20:54;;;;;;;0.80;0.80;;;25.90;99.90;;;;;;4991394;28;20560;-71
2023/07/12 13:23:23;;;;;;;0.90;0.90;;;25.70;99.90;;;;;;4991361;28;20470;-69
2023/07/12 13:25:51;;;;;;;1.33;1.03;;;25.60;99.90;;;;;;4991187;28;20465;-67
2023/07/12 13:28:18;;;;;;;1.17;1.17;;;25.60;99.90;;;;;;4991461;28;20462;-68
2023/07/12 13:30:45;;;;;;;1.00;1.00;;;25.70;99.90;;;;;;4991171;28;20517;-68
2023/07/12 13:33:13;;;;;;;1.17;1.17;;;25.80;99.90;;;;;;4991176;28;20477;-67
2023/07/12 13:35:40;;;;;;;1.60;1.60;;;25.90;99.90;;;;;;4991015;28;20493;-67
2023/07/12 13:38:12;;;;;;;1.10;1.10;;;26.00;99.90;;;;;;4990988;28;20500;-67
2023/07/12 13:40:40;;;;;;;1.80;1.00;;;26.00;99.90;;;;;;4991417;28;20891;-67
2023/07/12 13:43:11;;;;;;;1.20;1.20;;;25.90;99.90;;;;;;4996694;28;20476;-67
2023/07/12 13:45:38;;;;;;;1.33;0.90;;;26.00;99.90;;;;;;5010030;28;20473;-67
2023/07/12 13:48:11;;;;;;;1.10;1.10;;;25.80;99.90;;;;;;5010137;28;20468;-67
2023/07/12 13:50:38;;;;;;;1.40;1.40;;;25.80;99.90;;;;;;5010523;28;20982;-67
2023/07/12 13:53:05;;;;;;;1.07;1.07;;;25.70;99.90;;;;;;5010463;28;20819;-67
2023/07/12 13:55:33;;;;;;;0.90;0.90;;;25.60;99.90;;;;;;5010389;28;20487;-69
2023/07/12 13:58:00;;;;;;;1.20;1.20;;;25.40;99.90;;;;;;5011381;28;20496;-68
2023/07/12 14:00:26;;;;;;;1.03;1.03;;;25.40;99.90;;;;;;5014286;28;20838;-68
2023/07/12 14:02:55;;;;;;;1.40;1.00;;;25.50;99.90;;;;;;5014282;28;20515;-68
2023/07/12 14:05:22;;;;;;;1.57;1.43;;;25.40;99.90;;;;;;5014224;28;20470;-68
2023/07/12 14:07:50;;;;;;;0.60;0.60;;;25.40;99.90;;;;;;5014727;28;21325;-68
2023/07/12 14:10:18;;;;;;;1.03;1.03;;;25.20;99.90;;;;;;5014720;28;20476;-69
2023/07/12 14:12:47;;;;;;;0.97;0.97;;;25.00;99.90;;;;;;5014863;28;20526;-68
2023/07/12 14:15:23;;;;;;;0.90;0.90;;;24.60;99.90;;;;;;5014546;28;20464;-68
2023/07/12 14:17:51;;;;;;;1.60;0.90;;;24.50;99.90;;;;;;5014076;28;20490;-68
2023/07/12 14:20:19;;;;;;;1.70;1.07;;;24.50;99.90;;;;;;5014502;28;20472;-68
2023/07/12 14:22:46;;;;;;;0.80;0.60;;;24.40;99.90;;;;;;5016176;28;20466;-68
2023/07/12 14:25:18;;;;;;;0.83;0.83;;;24.30;99.90;;;;;;5024168;28;20464;-67
2023/07/12 14:27:47;;;;;;;0.70;0.70;;;24.20;99.90;;;;;;5028633;28;20483;-68
2023/07/12 14:30:15;;;;;;;1.37;0.60;;;24.20;99.90;;;;;;5020277;28;20574;-68
2023/07/12 14:32:45;;;;;;;0.60;0.60;;;24.10;99.90;;;;;;5019018;28;20890;-68
2023/07/12 14:35:16;;;;;;;2.73;0.90;;;24.00;99.90;;;;;;5016645;28;20472;-68
2023/07/12 14:37:43;;;;;;;1.37;1.10;;;23.90;99.90;;;;;;5014316;28;20486;-68
2023/07/12 14:40:14;;;;;;;0.80;0.67;;;23.90;99.90;;;;;;5014279;28;20934;-67
2023/07/12 14:42:40;;;;;;;0.83;0.83;;;24.10;99.90;;;;;;5012274;28;20467;-67
2023/07/12 14:45:16;;;;;;;0.90;0.90;;;24.40;99.90;;;;;;5013000;28;20808;-68
2023/07/12 14:47:42;;;;;;;0.80;0.80;;;24.40;99.90;;;;;;5013186;28;20994;-67
2023/07/12 14:50:12;;;;;;;1.00;1.00;;;24.30;99.90;;;;;;5013713;28;20470;-67
2023/07/12 14:52:40;;;;;;;0.60;0.60;;;24.10;99.90;;;;;;5013500;28;20472;-67
2023/07/12 14:55:12;;;;;;;2.50;0.80;;;24.00;99.90;;;;;;5013209;28;20817;-67
2023/07/12 14:57:39;;;;;;;0.90;0.90;;;23.90;99.90;;;;;;5013326;28;20517;-68
2023/07/12 15:00:10;;;;;;;1.03;1.03;;;23.70;99.90;;;;;;5013265;28;20471;-68
2023/07/12 15:02:40;;;;;;;1.33;1.33;;;23.60;99.90;;;;;;5012912;28;20571;-67
2023/07/12 15:05:10;;;;;;;9.10;1.20;;;23.60;99.90;;;;;;5013092;28;20458;-68
2023/07/12 15:07:40;;;;;;;1.33;1.30;;;23.50;99.90;;;;;;5013246;28;20468;-68
2023/07/12 15:10:11;;;;;;;1.20;1.20;;;23.00;99.90;;;;;;5012581;28;20549;-68
2023/07/12 15:12:40;;;;;;;2.20;1.13;;;22.60;99.90;;;;;;5013216;28;20480;-68
2023/07/12 15:15:14;;;;;;;0.90;0.90;;;22.20;99.90;;;;;;5012586;28;20943;-68
2023/07/12 15:17:42;;;;;;;0.87;0.87;;;21.70;99.90;;;;;;5012701;28;20477;-69
2023/07/12 15:20:11;;;;;;;1.90;1.33;;;21.20;99.90;;;;;;5013026;28;20574;-68
2023/07/12 15:22:38;;;;;;;0.77;0.77;;;20.80;99.90;;;;;;5012930;28;20532;-68
2023/07/12 15:25:18;;;;;;;1.70;0.97;;;20.70;99.90;;;;;;5012577;28;20561;-68
2023/07/12 15:27:46;;;;;;;1.67;1.27;;;20.50;99.90;;;;;;5012987;28;20465;-68
2023/07/12 15:30:14;;;;;;;1.57;1.57;;;20.40;99.90;;;;;;5012637;28;20504;-68
2023/07/12 15:32:43;;;;;;;3.30;1.60;;;20.30;99.90;;;;;;5012775;28;20466;-68
2023/07/12 15:35:26;;;;;;;2.07;1.97;;;20.20;99.90;;;;;;5012526;28;20477;-68
2023/07/12 15:37:54;;;;;;;1.40;1.40;;;20.10;99.90;;;;;;5012683;28;20497;-68
2023/07/12 15:40:21;;;;;;;6.27;1.57;;;20.00;99.90;;;;;;5012673;28;20493;-69
2023/07/12 15:42:48;;;;;;;1.10;1.10;;;19.90;99.90;;;;;;5011156;28;20469;-68
2023/07/12 15:45:16;;;;;;;1.57;1.47;;;19.70;99.90;;;;;;5011654;28;20821;-68
2023/07/12 15:47:44;;;;;;;2.07;1.53;;;19.70;99.90;;;;;;5011985;28;20473;-68
2023/07/12 15:50:15;;;;;;;0.80;0.80;;;19.80;99.90;;;;;;5012728;28;20488;-68
2023/07/12 15:52:44;;;;;;;0.90;0.90;;;19.80;99.90;;;;;;5012550;28;20461;-68
2023/07/12 15:55:17;;;;;;;2.30;1.13;;;19.80;99.90;;;;;;5012211;28;20458;-68
2023/07/12 15:57:44;;;;;;;1.03;1.00;;;19.90;99.90;;;;;;5013269;28;20462;-69
2023/07/12 16:00:19;;;;;;;1.03;1.03;;;19.90;99.90;;;;;;5012176;28;20488;-68
2023/07/12 16:02:47;;;;;;;3.50;1.20;;;19.90;99.90;;;;;;5012086;28;20940;-68
2023/07/12 16:05:15;;;;;;;2.70;1.70;;;20.00;99.90;;;;;;5012140;28;20475;-67
2023/07/12 16:07:43;;;;;;;1.70;1.10;;;20.00;99.90;;;;;;5012238;28;20469;-68
2023/07/12 16:10:15;;;;;;;1.10;1.10;;;20.10;99.90;;;;;;5012139;28;20478;-68
2023/07/12 16:12:42;;;;;;;1.10;1.00;;;20.10;99.90;;;;;;5012005;28;20458;-68
2023/07/12 16:15:18;;;;;;;1.03;1.03;;;20.30;99.90;;;;;;5011567;28;20462;-68
2023/07/12 16:17:46;;;;;;;1.23;1.07;;;20.30;99.90;;;;;;5011596;28;20509;-68
2023/07/12 16:20:13;;;;;;;2.87;1.00;;;20.40;99.90;;;;;;5011894;28;20485;-68
2023/07/12 16:22:41;;;;;;;1.10;1.10;;;20.50;99.90;;;;;;5010823;28;20477;-68
2023/07/12 16:25:15;;;;;;;1.73;1.10;;;20.60;99.90;;;;;;5011659;28;20462;-68
2023/07/12 16:27:44;;;;;;;0.90;0.90;;;20.70;99.90;;;;;;5012423;28;20523;-68
2023/07/12 16:30:15;;;;;;;5.20;1.40;;;20.70;99.90;;;;;;5011341;28;20466;-68
2023/07/12 16:32:42;;;;;;;1.33;1.33;;;20.80;99.90;;;;;;5011374;28;20527;-68
2023/07/12 16:35:15;;;;;;;1.40;1.40;;;20.90;99.90;;;;;;5011596;28;20516;-68
2023/07/12 16:37:42;;;;;;;1.40;1.40;;;21.20;99.90;;;;;;5012005;28;20462;-68
2023/07/12 16:40:10;;;;;;;1.30;1.30;;;21.40;99.90;;;;;;5011540;28;20861;-68
2023/07/12 16:42:37;;;;;;;1.27;1.27;;;21.70;99.90;;;;;;5010405;28;20483;-68
2023/07/12 16:45:05;;;;;;;1.90;1.90;;;21.80;99.90;;;;;;5010518;28;20943;-68
2023/07/12 16:47:32;;;;;;;1.20;1.20;;;21.90;99.90;;;;;;5011037;28;20462;-67
2023/07/12 16:49:58;;;;;;;1.10;1.10;;;22.00;99.90;;;;;;5011230;28;20466;-68
2023/07/12 16:52:28;;;;;;;2.40;1.50;;;22.00;99.90;;;;;;5011535;28;20567;-68
2023/07/12 16:54:55;;;;;;;0.87;0.87;;;21.80;99.90;;;;;;5011371;28;20475;-68
2023/07/12 16:57:23;;;;;;;1.03;1.03;;;21.70;99.90;;;;;;5011417;28;20824;-68
2023/07/12 16:59:51;;;;;;;3.00;2.00;;;21.50;99.90;;;;;;5010670;28;20516;-68